Aviation Digital Data Service (ADDS)

Output produced by METARs form (0124 UTC 23 July 2017)
found at http://www.aviationweather.gov/adds/metars/
 
KJAC 222327Z 2300/2324 22008KT P6SM SKC 
     FM230100 33006KT P6SM SKC 
     FM231900 22007KT P6SM SCT110 AMD LTD TO CLD VIS AND WIND
       
KJAN 222348Z 2300/2324 22008G19KT 2SM -TSRA BR BKN035CB OVC045 
     FM230200 20004KT P6SM FEW250 
     FM231900 21007KT P6SM VCTS SCT050CB
       
KJAX 222327Z 2300/2324 19006KT P6SM FEW006 SCT090 BKN250 
     FM230200 22004KT P6SM SCT150 BKN250 
     FM231200 23004KT P6SM SCT050 BKN250 
     FM231400 24006KT P6SM VCSH SCT025 BKN050 OVC100 
     FM231600 24008KT P6SM -SHRA SCT030 BKN045 OVC060 
     TEMPO 2317/2321 24015G25KT -TSRA FEW010 SCT020 BKN030CB 
     FM232200 18007KT P6SM VCSH FEW020 SCT030 BKN250
       
KJBR 222336Z 2300/2324 21006KT P6SM SKC 
     FM231600 25009KT P6SM FEW045 
     FM232100 21011KT P6SM VCTS SCT050CB
       
KJFK 230047Z 2301/2406 14007KT P6SM SHRA SCT045 BKN070 
     FM230400 10009KT P6SM RA SCT025 OVC040 
     FM230900 04009KT P6SM BKN025 
     FM231600 12010KT P6SM BKN040
       
KJER 222334Z 2300/2324 VRB06KT P6SM SCT150
       
KJHW 222336Z 2300/2324 10005KT P6SM VCSH BKN045 
     FM230200 VRB03KT P6SM BKN020 
     FM230800 11005KT 1SM BR BKN003 
     FM231600 VRB03KT P6SM -SHRA VCTS BKN020CB 
     FM232000 VRB03KT P6SM -SHRA VCTS OVC035CB AMD LTD TO CLD VIS AND WIND
       
KJMS 222324Z 2300/2324 36010KT P6SM SKC 
     FM231900 01006KT P6SM FEW250
       
KJST 222359Z 2300/2324 24008KT P6SM -RA BKN013 BKN025 OVC080 
     FM230100 25006KT 4SM BR BKN015 
     FM230900 24008KT 4SM BR OVC007 
     FM231200 21006KT 5SM BR SCT007 BKN025 
     FM231400 22007KT P6SM BKN035 
     FM232100 17004KT P6SM VCSH BKN050